sensor_id;sensor_type;location;lat;lon;timestamp;P1;durP1;ratioP1;P2;durP2;ratioP2
67597;SDS011;62026;39.230;9.122;2023-07-31T00:00:37;2.92;;;1.40;;
67597;SDS011;62026;39.230;9.122;2023-07-31T00:03:03;2.35;;;1.05;;
67597;SDS011;62026;39.230;9.122;2023-07-31T00:05:29;6.35;;;1.38;;
67597;SDS011;62026;39.230;9.122;2023-07-31T00:07:55;2.90;;;1.60;;
67597;SDS011;62026;39.230;9.122;2023-07-31T00:10:21;4.60;;;1.45;;
67597;SDS011;62026;39.230;9.122;2023-07-31T00:12:47;5.00;;;1.50;;
67597;SDS011;62026;39.230;9.122;2023-07-31T00:15:13;3.80;;;1.70;;
67597;SDS011;62026;39.230;9.122;2023-07-31T00:17:40;3.90;;;1.35;;
67597;SDS011;62026;39.230;9.122;2023-07-31T00:20:06;4.10;;;1.58;;
67597;SDS011;62026;39.230;9.122;2023-07-31T00:22:33;3.13;;;1.55;;
67597;SDS011;62026;39.230;9.122;2023-07-31T00:24:59;5.85;;;1.55;;
67597;SDS011;62026;39.230;9.122;2023-07-31T00:27:25;5.72;;;1.40;;
67597;SDS011;62026;39.230;9.122;2023-07-31T00:29:51;3.67;;;1.60;;
67597;SDS011;62026;39.230;9.122;2023-07-31T00:32:17;5.07;;;1.90;;
67597;SDS011;62026;39.230;9.122;2023-07-31T00:34:43;3.63;;;1.58;;
67597;SDS011;62026;39.230;9.122;2023-07-31T00:37:09;5.10;;;1.60;;
67597;SDS011;62026;39.230;9.122;2023-07-31T00:39:35;4.00;;;1.50;;
67597;SDS011;62026;39.230;9.122;2023-07-31T00:42:01;4.53;;;1.88;;
67597;SDS011;62026;39.230;9.122;2023-07-31T00:44:28;5.68;;;1.85;;
67597;SDS011;62026;39.230;9.122;2023-07-31T00:46:54;2.78;;;1.50;;
67597;SDS011;62026;39.230;9.122;2023-07-31T00:49:23;3.78;;;1.52;;
67597;SDS011;62026;39.230;9.122;2023-07-31T00:51:50;2.67;;;1.30;;
67597;SDS011;62026;39.230;9.122;2023-07-31T00:54:17;1.73;;;1.30;;
67597;SDS011;62026;39.230;9.122;2023-07-31T00:56:44;4.53;;;1.70;;
67597;SDS011;62026;39.230;9.122;2023-07-31T00:59:13;3.15;;;1.60;;
67597;SDS011;62026;39.230;9.122;2023-07-31T01:01:40;6.53;;;1.30;;
67597;SDS011;62026;39.230;9.122;2023-07-31T01:04:06;5.43;;;1.52;;
67597;SDS011;62026;39.230;9.122;2023-07-31T01:06:36;6.35;;;1.92;;
67597;SDS011;62026;39.230;9.122;2023-07-31T01:12:15;4.97;;;1.40;;
67597;SDS011;62026;39.230;9.122;2023-07-31T01:14:50;4.70;;;1.63;;
67597;SDS011;62026;39.230;9.122;2023-07-31T01:17:31;6.30;;;1.80;;
67597;SDS011;62026;39.230;9.122;2023-07-31T01:19:59;3.35;;;1.70;;
67597;SDS011;62026;39.230;9.122;2023-07-31T01:31:32;5.47;;;1.70;;
67597;SDS011;62026;39.230;9.122;2023-07-31T01:34:00;6.65;;;1.73;;
67597;SDS011;62026;39.230;9.122;2023-07-31T01:36:27;3.78;;;1.77;;
67597;SDS011;62026;39.230;9.122;2023-07-31T01:38:59;4.35;;;1.73;;
67597;SDS011;62026;39.230;9.122;2023-07-31T01:41:26;7.43;;;1.80;;
67597;SDS011;62026;39.230;9.122;2023-07-31T01:43:52;4.03;;;1.67;;
67597;SDS011;62026;39.230;9.122;2023-07-31T01:46:18;5.30;;;1.83;;
67597;SDS011;62026;39.230;9.122;2023-07-31T01:48:44;8.32;;;2.17;;
67597;SDS011;62026;39.230;9.122;2023-07-31T01:51:10;3.55;;;1.70;;
67597;SDS011;62026;39.230;9.122;2023-07-31T01:53:36;5.65;;;2.00;;
67597;SDS011;62026;39.230;9.122;2023-07-31T01:56:02;3.35;;;1.88;;
67597;SDS011;62026;39.230;9.122;2023-07-31T01:58:29;6.72;;;2.08;;
67597;SDS011;62026;39.230;9.122;2023-07-31T02:00:55;4.20;;;1.60;;
67597;SDS011;62026;39.230;9.122;2023-07-31T02:03:21;3.60;;;1.77;;
67597;SDS011;62026;39.230;9.122;2023-07-31T02:05:49;4.75;;;1.85;;
67597;SDS011;62026;39.230;9.122;2023-07-31T02:08:15;9.32;;;1.90;;
67597;SDS011;62026;39.230;9.122;2023-07-31T02:10:42;4.53;;;1.90;;
67597;SDS011;62026;39.230;9.122;2023-07-31T02:13:08;5.15;;;2.13;;
67597;SDS011;62026;39.230;9.122;2023-07-31T02:15:34;5.60;;;2.15;;
67597;SDS011;62026;39.230;9.122;2023-07-31T02:18:01;4.63;;;1.90;;
67597;SDS011;62026;39.230;9.122;2023-07-31T02:20:27;4.55;;;1.90;;
67597;SDS011;62026;39.230;9.122;2023-07-31T02:22:53;4.30;;;1.85;;
67597;SDS011;62026;39.230;9.122;2023-07-31T02:25:19;4.45;;;1.80;;
67597;SDS011;62026;39.230;9.122;2023-07-31T02:27:44;3.40;;;1.67;;
67597;SDS011;62026;39.230;9.122;2023-07-31T02:30:10;4.65;;;1.90;;
67597;SDS011;62026;39.230;9.122;2023-07-31T02:32:36;4.03;;;1.95;;
67597;SDS011;62026;39.230;9.122;2023-07-31T02:35:03;8.00;;;1.70;;
67597;SDS011;62026;39.230;9.122;2023-07-31T02:37:29;6.85;;;1.95;;
67597;SDS011;62026;39.230;9.122;2023-07-31T02:39:55;2.65;;;1.85;;
67597;SDS011;62026;39.230;9.122;2023-07-31T02:42:21;3.00;;;2.00;;
67597;SDS011;62026;39.230;9.122;2023-07-31T02:44:47;5.03;;;1.73;;
67597;SDS011;62026;39.230;9.122;2023-07-31T02:47:13;4.95;;;1.95;;
67597;SDS011;62026;39.230;9.122;2023-07-31T02:49:39;5.95;;;1.92;;
67597;SDS011;62026;39.230;9.122;2023-07-31T02:52:05;3.38;;;1.90;;
67597;SDS011;62026;39.230;9.122;2023-07-31T02:54:31;6.75;;;1.80;;
67597;SDS011;62026;39.230;9.122;2023-07-31T02:56:57;3.53;;;1.85;;
67597;SDS011;62026;39.230;9.122;2023-07-31T02:59:23;3.92;;;2.10;;
67597;SDS011;62026;39.230;9.122;2023-07-31T03:01:50;4.25;;;1.75;;
67597;SDS011;62026;39.230;9.122;2023-07-31T03:04:16;4.45;;;1.83;;
67597;SDS011;62026;39.230;9.122;2023-07-31T03:06:42;4.90;;;1.80;;
67597;SDS011;62026;39.230;9.122;2023-07-31T03:09:08;6.07;;;2.03;;
67597;SDS011;62026;39.230;9.122;2023-07-31T03:11:34;4.55;;;1.90;;
67597;SDS011;62026;39.230;9.122;2023-07-31T03:14:00;5.68;;;2.00;;
67597;SDS011;62026;39.230;9.122;2023-07-31T03:16:26;5.38;;;2.38;;
67597;SDS011;62026;39.230;9.122;2023-07-31T03:18:53;4.88;;;2.30;;
67597;SDS011;62026;39.230;9.122;2023-07-31T03:21:19;3.63;;;2.10;;
67597;SDS011;62026;39.230;9.122;2023-07-31T03:23:45;3.63;;;2.28;;
67597;SDS011;62026;39.230;9.122;2023-07-31T03:26:11;6.03;;;2.30;;
67597;SDS011;62026;39.230;9.122;2023-07-31T03:28:37;5.25;;;2.10;;
67597;SDS011;62026;39.230;9.122;2023-07-31T03:31:03;4.70;;;2.15;;
67597;SDS011;62026;39.230;9.122;2023-07-31T03:33:29;4.05;;;2.13;;
67597;SDS011;62026;39.230;9.122;2023-07-31T03:35:55;5.15;;;2.10;;
67597;SDS011;62026;39.230;9.122;2023-07-31T03:38:22;5.20;;;2.17;;
67597;SDS011;62026;39.230;9.122;2023-07-31T03:40:48;4.45;;;1.98;;
67597;SDS011;62026;39.230;9.122;2023-07-31T03:43:14;3.17;;;1.85;;
67597;SDS011;62026;39.230;9.122;2023-07-31T03:45:41;6.25;;;1.90;;
67597;SDS011;62026;39.230;9.122;2023-07-31T03:48:07;5.90;;;2.17;;
67597;SDS011;62026;39.230;9.122;2023-07-31T03:50:33;4.30;;;1.85;;
67597;SDS011;62026;39.230;9.122;2023-07-31T03:53:00;6.00;;;2.25;;
67597;SDS011;62026;39.230;9.122;2023-07-31T03:55:26;6.10;;;2.38;;
67597;SDS011;62026;39.230;9.122;2023-07-31T03:57:51;5.65;;;2.28;;
67597;SDS011;62026;39.230;9.122;2023-07-31T04:00:17;5.63;;;2.10;;
67597;SDS011;62026;39.230;9.122;2023-07-31T04:02:44;6.05;;;2.20;;
67597;SDS011;62026;39.230;9.122;2023-07-31T04:05:10;5.28;;;1.83;;
67597;SDS011;62026;39.230;9.122;2023-07-31T04:07:36;7.78;;;2.55;;
67597;SDS011;62026;39.230;9.122;2023-07-31T04:10:03;4.70;;;2.30;;
67597;SDS011;62026;39.230;9.122;2023-07-31T04:12:29;4.28;;;2.25;;
67597;SDS011;62026;39.230;9.122;2023-07-31T04:14:55;4.22;;;2.40;;
67597;SDS011;62026;39.230;9.122;2023-07-31T04:17:21;6.82;;;2.33;;
67597;SDS011;62026;39.230;9.122;2023-07-31T04:19:47;5.50;;;2.50;;
67597;SDS011;62026;39.230;9.122;2023-07-31T04:22:13;4.40;;;2.05;;
67597;SDS011;62026;39.230;9.122;2023-07-31T04:24:39;4.65;;;1.85;;
67597;SDS011;62026;39.230;9.122;2023-07-31T04:27:05;4.97;;;2.28;;
67597;SDS011;62026;39.230;9.122;2023-07-31T04:29:31;4.32;;;2.10;;
67597;SDS011;62026;39.230;9.122;2023-07-31T04:31:57;5.03;;;2.22;;
67597;SDS011;62026;39.230;9.122;2023-07-31T04:34:23;8.57;;;2.35;;
67597;SDS011;62026;39.230;9.122;2023-07-31T04:36:49;5.97;;;2.22;;
67597;SDS011;62026;39.230;9.122;2023-07-31T04:39:15;5.75;;;2.15;;
67597;SDS011;62026;39.230;9.122;2023-07-31T04:41:41;5.07;;;2.60;;
67597;SDS011;62026;39.230;9.122;2023-07-31T04:44:07;5.35;;;2.42;;
67597;SDS011;62026;39.230;9.122;2023-07-31T04:46:33;4.47;;;2.00;;
67597;SDS011;62026;39.230;9.122;2023-07-31T04:49:00;6.07;;;2.33;;
67597;SDS011;62026;39.230;9.122;2023-07-31T04:51:26;3.15;;;1.88;;
67597;SDS011;62026;39.230;9.122;2023-07-31T04:53:52;5.90;;;2.13;;
67597;SDS011;62026;39.230;9.122;2023-07-31T04:56:18;4.90;;;2.30;;
67597;SDS011;62026;39.230;9.122;2023-07-31T04:58:44;4.63;;;2.03;;
67597;SDS011;62026;39.230;9.122;2023-07-31T05:01:10;8.80;;;2.38;;
67597;SDS011;62026;39.230;9.122;2023-07-31T05:03:35;6.55;;;2.20;;
67597;SDS011;62026;39.230;9.122;2023-07-31T05:06:01;5.80;;;2.50;;
67597;SDS011;62026;39.230;9.122;2023-07-31T05:08:27;6.00;;;2.22;;
67597;SDS011;62026;39.230;9.122;2023-07-31T05:10:53;5.80;;;2.30;;
67597;SDS011;62026;39.230;9.122;2023-07-31T05:13:19;4.05;;;2.28;;
67597;SDS011;62026;39.230;9.122;2023-07-31T05:15:45;4.30;;;2.30;;
67597;SDS011;62026;39.230;9.122;2023-07-31T05:18:11;3.97;;;2.22;;
67597;SDS011;62026;39.230;9.122;2023-07-31T05:20:37;4.18;;;2.15;;
67597;SDS011;62026;39.230;9.122;2023-07-31T05:23:03;5.07;;;2.15;;
67597;SDS011;62026;39.230;9.122;2023-07-31T05:25:29;5.25;;;2.03;;
67597;SDS011;62026;39.230;9.122;2023-07-31T05:27:54;8.68;;;2.50;;
67597;SDS011;62026;39.230;9.122;2023-07-31T05:30:20;4.32;;;2.30;;
67597;SDS011;62026;39.230;9.122;2023-07-31T05:32:47;3.85;;;2.20;;
67597;SDS011;62026;39.230;9.122;2023-07-31T05:35:12;7.45;;;2.58;;
67597;SDS011;62026;39.230;9.122;2023-07-31T05:37:38;4.47;;;2.33;;
67597;SDS011;62026;39.230;9.122;2023-07-31T05:40:05;5.07;;;2.30;;
67597;SDS011;62026;39.230;9.122;2023-07-31T05:42:31;5.82;;;2.35;;
67597;SDS011;62026;39.230;9.122;2023-07-31T05:44:57;5.18;;;2.47;;
67597;SDS011;62026;39.230;9.122;2023-07-31T05:47:23;6.90;;;2.40;;
67597;SDS011;62026;39.230;9.122;2023-07-31T05:49:49;8.40;;;2.60;;
67597;SDS011;62026;39.230;9.122;2023-07-31T05:52:18;12.02;;;2.47;;
67597;SDS011;62026;39.230;9.122;2023-07-31T05:54:44;4.03;;;2.20;;
67597;SDS011;62026;39.230;9.122;2023-07-31T05:57:13;2.60;;;2.03;;
67597;SDS011;62026;39.230;9.122;2023-07-31T05:59:39;6.72;;;2.25;;
67597;SDS011;62026;39.230;9.122;2023-07-31T06:02:05;5.18;;;2.35;;
67597;SDS011;62026;39.230;9.122;2023-07-31T06:04:31;3.95;;;2.17;;
67597;SDS011;62026;39.230;9.122;2023-07-31T06:06:57;4.85;;;2.50;;
67597;SDS011;62026;39.230;9.122;2023-07-31T06:09:23;6.57;;;2.33;;
67597;SDS011;62026;39.230;9.122;2023-07-31T06:11:49;9.57;;;2.30;;
67597;SDS011;62026;39.230;9.122;2023-07-31T06:14:15;8.55;;;2.85;;
67597;SDS011;62026;39.230;9.122;2023-07-31T06:16:41;9.70;;;2.53;;
67597;SDS011;62026;39.230;9.122;2023-07-31T06:19:09;8.77;;;2.30;;
67597;SDS011;62026;39.230;9.122;2023-07-31T06:21:36;6.68;;;2.35;;
67597;SDS011;62026;39.230;9.122;2023-07-31T06:24:03;3.50;;;1.88;;
67597;SDS011;62026;39.230;9.122;2023-07-31T06:26:31;4.78;;;2.00;;
67597;SDS011;62026;39.230;9.122;2023-07-31T06:28:57;4.00;;;2.00;;
67597;SDS011;62026;39.230;9.122;2023-07-31T06:31:22;6.72;;;1.90;;
67597;SDS011;62026;39.230;9.122;2023-07-31T06:33:49;9.35;;;2.08;;
67597;SDS011;62026;39.230;9.122;2023-07-31T06:36:17;8.05;;;2.08;;
67597;SDS011;62026;39.230;9.122;2023-07-31T06:38:43;5.93;;;2.05;;
67597;SDS011;62026;39.230;9.122;2023-07-31T06:41:09;7.45;;;2.05;;
67597;SDS011;62026;39.230;9.122;2023-07-31T06:43:36;4.65;;;2.08;;
67597;SDS011;62026;39.230;9.122;2023-07-31T06:46:05;5.75;;;2.05;;
67597;SDS011;62026;39.230;9.122;2023-07-31T06:48:33;111.00;;;8.85;;
67597;SDS011;62026;39.230;9.122;2023-07-31T06:51:00;41.92;;;5.50;;
67597;SDS011;62026;39.230;9.122;2023-07-31T06:53:26;5.70;;;2.08;;
67597;SDS011;62026;39.230;9.122;2023-07-31T06:55:53;38.35;;;4.82;;
67597;SDS011;62026;39.230;9.122;2023-07-31T06:58:19;9.60;;;2.25;;
67597;SDS011;62026;39.230;9.122;2023-07-31T07:00:45;13.95;;;2.20;;
67597;SDS011;62026;39.230;9.122;2023-07-31T07:03:11;17.13;;;3.05;;
67597;SDS011;62026;39.230;9.122;2023-07-31T07:05:40;22.73;;;2.97;;
67597;SDS011;62026;39.230;9.122;2023-07-31T07:08:06;91.07;;;7.07;;
67597;SDS011;62026;39.230;9.122;2023-07-31T07:10:32;91.63;;;8.13;;
67597;SDS011;62026;39.230;9.122;2023-07-31T07:12:58;12.07;;;2.53;;
67597;SDS011;62026;39.230;9.122;2023-07-31T07:15:24;9.00;;;2.30;;
67597;SDS011;62026;39.230;9.122;2023-07-31T07:17:50;11.07;;;2.40;;
67597;SDS011;62026;39.230;9.122;2023-07-31T07:20:16;9.07;;;2.20;;
67597;SDS011;62026;39.230;9.122;2023-07-31T07:22:42;6.22;;;2.17;;
67597;SDS011;62026;39.230;9.122;2023-07-31T07:25:10;5.07;;;2.03;;
67597;SDS011;62026;39.230;9.122;2023-07-31T07:27:36;3.22;;;1.60;;
67597;SDS011;62026;39.230;9.122;2023-07-31T07:30:02;5.45;;;1.85;;
67597;SDS011;62026;39.230;9.122;2023-07-31T07:32:29;8.32;;;2.00;;
67597;SDS011;62026;39.230;9.122;2023-07-31T07:34:55;12.48;;;1.75;;
67597;SDS011;62026;39.230;9.122;2023-07-31T07:37:21;122.30;;;9.27;;
67597;SDS011;62026;39.230;9.122;2023-07-31T07:39:47;25.60;;;2.40;;
67597;SDS011;62026;39.230;9.122;2023-07-31T07:42:13;19.95;;;2.33;;
67597;SDS011;62026;39.230;9.122;2023-07-31T07:44:39;12.10;;;1.90;;
67597;SDS011;62026;39.230;9.122;2023-07-31T07:47:05;4.13;;;1.70;;
67597;SDS011;62026;39.230;9.122;2023-07-31T07:49:32;5.93;;;1.67;;
67597;SDS011;62026;39.230;9.122;2023-07-31T07:52:01;4.45;;;1.80;;
67597;SDS011;62026;39.230;9.122;2023-07-31T07:54:28;6.18;;;1.90;;
67597;SDS011;62026;39.230;9.122;2023-07-31T07:56:55;10.60;;;2.28;;
67597;SDS011;62026;39.230;9.122;2023-07-31T07:59:21;4.47;;;1.90;;
67597;SDS011;62026;39.230;9.122;2023-07-31T08:01:47;11.32;;;1.88;;
67597;SDS011;62026;39.230;9.122;2023-07-31T08:04:13;4.60;;;1.60;;
67597;SDS011;62026;39.230;9.122;2023-07-31T08:06:39;5.30;;;1.63;;
67597;SDS011;62026;39.230;9.122;2023-07-31T08:09:05;4.32;;;2.05;;
67597;SDS011;62026;39.230;9.122;2023-07-31T08:11:32;5.72;;;2.42;;
67597;SDS011;62026;39.230;9.122;2023-07-31T08:13:58;5.55;;;1.70;;
67597;SDS011;62026;39.230;9.122;2023-07-31T08:16:24;5.00;;;1.90;;
67597;SDS011;62026;39.230;9.122;2023-07-31T08:18:50;9.18;;;1.90;;
67597;SDS011;62026;39.230;9.122;2023-07-31T08:21:16;6.78;;;2.17;;
67597;SDS011;62026;39.230;9.122;2023-07-31T08:23:42;5.40;;;2.10;;
67597;SDS011;62026;39.230;9.122;2023-07-31T08:26:08;9.18;;;1.90;;
67597;SDS011;62026;39.230;9.122;2023-07-31T08:28:42;7.13;;;1.90;;
67597;SDS011;62026;39.230;9.122;2023-07-31T08:31:08;5.93;;;1.70;;
67597;SDS011;62026;39.230;9.122;2023-07-31T08:33:35;22.02;;;2.40;;
67597;SDS011;62026;39.230;9.122;2023-07-31T08:36:02;5.05;;;1.77;;
67597;SDS011;62026;39.230;9.122;2023-07-31T08:38:29;12.10;;;2.00;;
67597;SDS011;62026;39.230;9.122;2023-07-31T08:40:56;2.92;;;1.50;;
67597;SDS011;62026;39.230;9.122;2023-07-31T08:43:25;9.45;;;1.85;;
67597;SDS011;62026;39.230;9.122;2023-07-31T08:45:52;7.03;;;1.40;;
67597;SDS011;62026;39.230;9.122;2023-07-31T08:48:19;5.47;;;1.70;;
67597;SDS011;62026;39.230;9.122;2023-07-31T08:50:47;7.22;;;1.33;;
67597;SDS011;62026;39.230;9.122;2023-07-31T08:53:13;4.78;;;1.40;;
67597;SDS011;62026;39.230;9.122;2023-07-31T08:55:39;17.70;;;1.70;;
67597;SDS011;62026;39.230;9.122;2023-07-31T08:58:06;7.47;;;1.35;;
67597;SDS011;62026;39.230;9.122;2023-07-31T09:00:33;9.77;;;1.60;;
67597;SDS011;62026;39.230;9.122;2023-07-31T09:03:02;5.72;;;1.60;;
67597;SDS011;62026;39.230;9.122;2023-07-31T09:05:35;7.07;;;1.40;;
67597;SDS011;62026;39.230;9.122;2023-07-31T09:08:07;4.95;;;1.33;;
67597;SDS011;62026;39.230;9.122;2023-07-31T09:10:35;6.70;;;1.30;;
67597;SDS011;62026;39.230;9.122;2023-07-31T09:13:06;5.63;;;1.33;;
67597;SDS011;62026;39.230;9.122;2023-07-31T09:15:32;2.92;;;1.33;;
67597;SDS011;62026;39.230;9.122;2023-07-31T09:18:00;4.10;;;1.17;;
67597;SDS011;62026;39.230;9.122;2023-07-31T09:20:28;9.43;;;1.30;;
67597;SDS011;62026;39.230;9.122;2023-07-31T09:22:54;14.57;;;1.38;;
67597;SDS011;62026;39.230;9.122;2023-07-31T09:25:22;8.35;;;1.60;;
67597;SDS011;62026;39.230;9.122;2023-07-31T09:30:25;3.92;;;1.50;;
67597;SDS011;62026;39.230;9.122;2023-07-31T09:32:52;6.20;;;1.58;;
67597;SDS011;62026;39.230;9.122;2023-07-31T09:35:34;7.13;;;1.63;;
67597;SDS011;62026;39.230;9.122;2023-07-31T09:38:03;7.55;;;1.48;;
67597;SDS011;62026;39.230;9.122;2023-07-31T09:40:33;6.65;;;1.50;;
67597;SDS011;62026;39.230;9.122;2023-07-31T09:43:07;5.45;;;1.45;;
67597;SDS011;62026;39.230;9.122;2023-07-31T09:45:40;6.18;;;1.70;;
67597;SDS011;62026;39.230;9.122;2023-07-31T09:48:08;6.30;;;1.50;;
67597;SDS011;62026;39.230;9.122;2023-07-31T09:50:44;7.22;;;1.35;;
67597;SDS011;62026;39.230;9.122;2023-07-31T09:53:12;8.35;;;1.40;;
67597;SDS011;62026;39.230;9.122;2023-07-31T09:55:40;13.57;;;2.05;;
67597;SDS011;62026;39.230;9.122;2023-07-31T09:58:08;8.20;;;1.75;;
67597;SDS011;62026;39.230;9.122;2023-07-31T10:00:37;10.13;;;2.13;;
67597;SDS011;62026;39.230;9.122;2023-07-31T10:03:05;4.43;;;1.58;;
67597;SDS011;62026;39.230;9.122;2023-07-31T10:05:35;6.65;;;1.65;;
67597;SDS011;62026;39.230;9.122;2023-07-31T10:08:03;20.90;;;1.95;;
67597;SDS011;62026;39.230;9.122;2023-07-31T10:10:31;5.90;;;1.60;;
67597;SDS011;62026;39.230;9.122;2023-07-31T10:12:57;5.85;;;1.70;;
67597;SDS011;62026;39.230;9.122;2023-07-31T10:15:26;4.97;;;1.48;;
67597;SDS011;62026;39.230;9.122;2023-07-31T10:17:53;8.15;;;1.48;;
67597;SDS011;62026;39.230;9.122;2023-07-31T10:20:20;7.18;;;1.80;;
67597;SDS011;62026;39.230;9.122;2023-07-31T10:22:47;7.00;;;1.52;;
67597;SDS011;62026;39.230;9.122;2023-07-31T10:25:14;4.88;;;1.63;;
67597;SDS011;62026;39.230;9.122;2023-07-31T10:27:42;7.38;;;1.73;;
67597;SDS011;62026;39.230;9.122;2023-07-31T10:30:10;5.25;;;1.40;;
67597;SDS011;62026;39.230;9.122;2023-07-31T10:32:41;4.90;;;1.67;;
67597;SDS011;62026;39.230;9.122;2023-07-31T10:35:09;5.72;;;1.77;;
67597;SDS011;62026;39.230;9.122;2023-07-31T10:37:37;4.55;;;1.50;;
67597;SDS011;62026;39.230;9.122;2023-07-31T10:40:06;8.55;;;1.98;;
67597;SDS011;62026;39.230;9.122;2023-07-31T10:42:57;3.55;;;1.73;;
67597;SDS011;62026;39.230;9.122;2023-07-31T10:45:24;10.27;;;1.70;;
67597;SDS011;62026;39.230;9.122;2023-07-31T10:50:32;7.55;;;1.65;;
67597;SDS011;62026;39.230;9.122;2023-07-31T10:53:03;7.10;;;1.95;;
67597;SDS011;62026;39.230;9.122;2023-07-31T10:55:33;6.85;;;1.60;;
67597;SDS011;62026;39.230;9.122;2023-07-31T10:58:07;7.97;;;1.90;;
67597;SDS011;62026;39.230;9.122;2023-07-31T11:00:43;4.05;;;2.35;;
67597;SDS011;62026;39.230;9.122;2023-07-31T11:03:13;7.40;;;2.40;;
67597;SDS011;62026;39.230;9.122;2023-07-31T11:05:47;6.15;;;2.35;;
67597;SDS011;62026;39.230;9.122;2023-07-31T11:08:27;7.32;;;2.40;;
67597;SDS011;62026;39.230;9.122;2023-07-31T11:11:10;6.70;;;2.10;;
67597;SDS011;62026;39.230;9.122;2023-07-31T11:13:46;4.00;;;2.03;;
67597;SDS011;62026;39.230;9.122;2023-07-31T11:16:20;5.88;;;2.38;;
67597;SDS011;62026;39.230;9.122;2023-07-31T11:18:49;4.38;;;1.90;;
67597;SDS011;62026;39.230;9.122;2023-07-31T11:21:19;10.98;;;2.35;;
67597;SDS011;62026;39.230;9.122;2023-07-31T11:23:48;5.45;;;1.55;;
67597;SDS011;62026;39.230;9.122;2023-07-31T11:26:16;7.43;;;1.90;;
67597;SDS011;62026;39.230;9.122;2023-07-31T11:28:45;5.93;;;1.60;;
67597;SDS011;62026;39.230;9.122;2023-07-31T11:31:13;6.43;;;1.98;;
67597;SDS011;62026;39.230;9.122;2023-07-31T11:33:39;6.20;;;2.40;;
67597;SDS011;62026;39.230;9.122;2023-07-31T11:36:05;6.75;;;2.25;;
67597;SDS011;62026;39.230;9.122;2023-07-31T11:38:32;4.68;;;2.03;;
67597;SDS011;62026;39.230;9.122;2023-07-31T11:41:00;4.95;;;1.75;;
67597;SDS011;62026;39.230;9.122;2023-07-31T11:43:33;7.32;;;1.77;;
67597;SDS011;62026;39.230;9.122;2023-07-31T11:46:01;5.32;;;1.38;;
67597;SDS011;62026;39.230;9.122;2023-07-31T11:48:29;3.88;;;1.30;;
67597;SDS011;62026;39.230;9.122;2023-07-31T11:51:00;5.05;;;1.65;;
67597;SDS011;62026;39.230;9.122;2023-07-31T11:53:31;5.22;;;1.00;;
67597;SDS011;62026;39.230;9.122;2023-07-31T11:56:07;2.17;;;0.90;;
67597;SDS011;62026;39.230;9.122;2023-07-31T11:58:36;4.88;;;1.10;;
67597;SDS011;62026;39.230;9.122;2023-07-31T12:01:04;6.03;;;1.30;;
67597;SDS011;62026;39.230;9.122;2023-07-31T12:03:31;3.33;;;1.20;;
67597;SDS011;62026;39.230;9.122;2023-07-31T12:05:58;7.32;;;1.40;;
67597;SDS011;62026;39.230;9.122;2023-07-31T12:08:25;4.97;;;1.40;;
67597;SDS011;62026;39.230;9.122;2023-07-31T12:10:51;4.22;;;1.30;;
67597;SDS011;62026;39.230;9.122;2023-07-31T12:13:23;3.25;;;1.40;;
67597;SDS011;62026;39.230;9.122;2023-07-31T12:15:55;3.65;;;1.40;;
67597;SDS011;62026;39.230;9.122;2023-07-31T12:18:26;12.25;;;1.48;;
67597;SDS011;62026;39.230;9.122;2023-07-31T12:20:55;7.20;;;1.40;;
67597;SDS011;62026;39.230;9.122;2023-07-31T12:23:27;21.60;;;1.88;;
67597;SDS011;62026;39.230;9.122;2023-07-31T12:26:09;11.80;;;1.30;;
67597;SDS011;62026;39.230;9.122;2023-07-31T12:28:47;6.18;;;1.50;;
67597;SDS011;62026;39.230;9.122;2023-07-31T12:31:16;5.70;;;1.50;;
67597;SDS011;62026;39.230;9.122;2023-07-31T12:33:48;8.57;;;1.73;;
67597;SDS011;62026;39.230;9.122;2023-07-31T12:36:23;4.43;;;1.85;;
67597;SDS011;62026;39.230;9.122;2023-07-31T12:38:50;5.20;;;1.40;;
67597;SDS011;62026;39.230;9.122;2023-07-31T12:41:17;9.02;;;2.28;;
67597;SDS011;62026;39.230;9.122;2023-07-31T12:43:44;8.40;;;2.17;;
67597;SDS011;62026;39.230;9.122;2023-07-31T12:46:11;4.72;;;2.30;;
67597;SDS011;62026;39.230;9.122;2023-07-31T12:48:38;10.52;;;2.35;;
67597;SDS011;62026;39.230;9.122;2023-07-31T12:51:04;6.65;;;2.95;;
67597;SDS011;62026;39.230;9.122;2023-07-31T12:53:34;9.27;;;2.30;;
67597;SDS011;62026;39.230;9.122;2023-07-31T12:56:01;11.50;;;2.00;;
67597;SDS011;62026;39.230;9.122;2023-07-31T12:58:27;7.63;;;1.98;;
67597;SDS011;62026;39.230;9.122;2023-07-31T13:00:54;5.78;;;1.60;;
67597;SDS011;62026;39.230;9.122;2023-07-31T13:03:20;6.72;;;1.92;;
67597;SDS011;62026;39.230;9.122;2023-07-31T13:05:46;8.38;;;1.95;;
67597;SDS011;62026;39.230;9.122;2023-07-31T13:08:12;9.75;;;2.03;;
67597;SDS011;62026;39.230;9.122;2023-07-31T13:10:38;7.07;;;2.22;;
67597;SDS011;62026;39.230;9.122;2023-07-31T13:13:05;8.13;;;2.30;;
67597;SDS011;62026;39.230;9.122;2023-07-31T13:15:31;11.63;;;2.47;;
67597;SDS011;62026;39.230;9.122;2023-07-31T13:17:57;5.88;;;2.28;;
67597;SDS011;62026;39.230;9.122;2023-07-31T13:20:23;8.10;;;3.22;;
67597;SDS011;62026;39.230;9.122;2023-07-31T13:22:49;7.45;;;3.08;;
67597;SDS011;62026;39.230;9.122;2023-07-31T13:25:15;9.25;;;3.88;;
67597;SDS011;62026;39.230;9.122;2023-07-31T13:27:41;13.30;;;5.15;;
67597;SDS011;62026;39.230;9.122;2023-07-31T13:30:07;24.95;;;10.43;;
67597;SDS011;62026;39.230;9.122;2023-07-31T13:32:33;21.65;;;11.20;;
67597;SDS011;62026;39.230;9.122;2023-07-31T13:35:04;13.82;;;6.85;;
67597;SDS011;62026;39.230;9.122;2023-07-31T13:37:32;12.07;;;4.88;;
67597;SDS011;62026;39.230;9.122;2023-07-31T13:39:57;18.40;;;6.88;;
67597;SDS011;62026;39.230;9.122;2023-07-31T13:42:23;13.57;;;6.40;;
67597;SDS011;62026;39.230;9.122;2023-07-31T13:44:49;17.65;;;7.05;;
67597;SDS011;62026;39.230;9.122;2023-07-31T13:47:15;9.43;;;4.38;;
67597;SDS011;62026;39.230;9.122;2023-07-31T13:49:41;10.60;;;4.35;;
67597;SDS011;62026;39.230;9.122;2023-07-31T13:52:08;12.02;;;6.07;;
67597;SDS011;62026;39.230;9.122;2023-07-31T13:54:34;14.18;;;8.70;;
67597;SDS011;62026;39.230;9.122;2023-07-31T13:57:00;9.98;;;5.03;;
67597;SDS011;62026;39.230;9.122;2023-07-31T13:59:26;7.63;;;4.20;;
67597;SDS011;62026;39.230;9.122;2023-07-31T14:01:52;8.95;;;2.80;;
67597;SDS011;62026;39.230;9.122;2023-07-31T14:04:18;10.30;;;2.38;;
67597;SDS011;62026;39.230;9.122;2023-07-31T14:06:44;8.65;;;4.50;;
67597;SDS011;62026;39.230;9.122;2023-07-31T14:09:13;9.85;;;4.80;;
67597;SDS011;62026;39.230;9.122;2023-07-31T14:11:39;15.98;;;8.95;;
67597;SDS011;62026;39.230;9.122;2023-07-31T14:14:05;15.95;;;8.07;;
67597;SDS011;62026;39.230;9.122;2023-07-31T14:16:31;15.57;;;5.32;;
67597;SDS011;62026;39.230;9.122;2023-07-31T14:18:57;8.20;;;3.45;;
67597;SDS011;62026;39.230;9.122;2023-07-31T14:21:24;10.00;;;5.88;;
67597;SDS011;62026;39.230;9.122;2023-07-31T14:23:51;15.63;;;8.52;;
67597;SDS011;62026;39.230;9.122;2023-07-31T14:26:17;18.00;;;9.02;;
67597;SDS011;62026;39.230;9.122;2023-07-31T14:28:43;16.58;;;4.53;;
67597;SDS011;62026;39.230;9.122;2023-07-31T14:31:09;12.38;;;3.20;;
67597;SDS011;62026;39.230;9.122;2023-07-31T14:33:35;11.50;;;6.55;;
67597;SDS011;62026;39.230;9.122;2023-07-31T14:36:01;15.10;;;5.93;;
67597;SDS011;62026;39.230;9.122;2023-07-31T14:42:34;10.55;;;4.80;;
67597;SDS011;62026;39.230;9.122;2023-07-31T14:45:01;7.43;;;3.47;;
67597;SDS011;62026;39.230;9.122;2023-07-31T14:47:29;12.20;;;4.88;;
67597;SDS011;62026;39.230;9.122;2023-07-31T14:49:56;9.40;;;3.80;;
67597;SDS011;62026;39.230;9.122;2023-07-31T14:52:22;6.88;;;3.88;;
67597;SDS011;62026;39.230;9.122;2023-07-31T14:54:48;15.25;;;7.88;;
67597;SDS011;62026;39.230;9.122;2023-07-31T14:57:14;14.82;;;8.32;;
67597;SDS011;62026;39.230;9.122;2023-07-31T14:59:40;13.60;;;7.47;;
67597;SDS011;62026;39.230;9.122;2023-07-31T15:02:06;15.00;;;8.93;;
67597;SDS011;62026;39.230;9.122;2023-07-31T15:04:35;18.67;;;6.28;;
67597;SDS011;62026;39.230;9.122;2023-07-31T15:07:01;17.83;;;9.38;;